Mariano Acosta, Argentina
Current Conditions -  °F | °C
As of 7:00 AM on Sunday 23 Nov 2014 (Local Time) from SAEZ Reporting Station
Clear Clear  
Wind Chill: 63°   Ceiling: Unl
Heat Index: 63°   Visibility: 6mi
Dew Point: 54°   Wind: 7mph
Humidity: 72%   Direction: 340°NNW
Pressure: 29.88"   Gusts: NA
Location:  34.72°S, 58.8°W
Report Text: SAEZ 231000Z 34006KT CAVOK 17/12 Q1012
Loading
Personal Weather Stations






























Interactive Weather Map New forecast layout! Learn more

10-Day Weather Forecast

Advertisements
Track Severe Weather on mobile